SH055 KNSE-KNSE
Flight info
| Callsign | SH055 |
|---|---|
| Flight time | N/A |
| Altitude | 10500 |
| Route | VFR |
| Aircraft | TEX2/L-SDGRY/C |
Departure
| Time | 2026-04-13 21:46 |
|---|---|
| Airport | Whiting Field Naval Air Station - North (KNSE) |
Arrival
| Time | N/A |
|---|---|
| Airport | Whiting Field Naval Air Station - North (KNSE) |
| Time | Latitude | Longitude | Altitude | Speed | Heading |
|---|---|---|---|---|---|
| 2026-04-13 21:41 | 30.71791 | -87.02437 | 191 ft | 0 kts | 272° |
| 2026-04-13 21:42 | 30.71792 | -87.02442 | 198 ft | 2 kts | 286° |
| 2026-04-13 21:42 | 30.71809 | -87.02450 | 196 ft | 4 kts | 7° |
| 2026-04-13 21:42 | 30.71839 | -87.02446 | 191 ft | 5 kts | 2° |
| 2026-04-13 21:42 | 30.71878 | -87.02444 | 191 ft | 6 kts | 4° |
| 2026-04-13 21:43 | 30.71926 | -87.02435 | 191 ft | 8 kts | 13° |
| 2026-04-13 21:43 | 30.71936 | -87.02373 | 191 ft | 12 kts | 94° |
| 2026-04-13 21:43 | 30.71933 | -87.02249 | 191 ft | 19 kts | 95° |
| 2026-04-13 21:43 | 30.71930 | -87.02082 | 191 ft | 23 kts | 94° |
| 2026-04-13 21:44 | 30.71921 | -87.01903 | 191 ft | 21 kts | 90° |
| 2026-04-13 21:44 | 30.71845 | -87.01793 | 191 ft | 16 kts | 142° |
| 2026-04-13 21:44 | 30.71767 | -87.01704 | 191 ft | 17 kts | 132° |
| 2026-04-13 21:44 | 30.71758 | -87.01630 | 195 ft | 9 kts | 45° |
| 2026-04-13 21:45 | 30.71807 | -87.01570 | 194 ft | 11 kts | 41° |
| 2026-04-13 21:45 | 30.71853 | -87.01580 | 193 ft | 7 kts | 317° |
| 2026-04-13 21:45 | 30.71919 | -87.01652 | 191 ft | 32 kts | 316° |
| 2026-04-13 21:45 | 30.72330 | -87.02077 | 202 ft | 129 kts | 317° |
| 2026-04-13 21:46 | 30.73054 | -87.02769 | 539 ft | 140 kts | 316° |
| 2026-04-13 21:46 | 30.73803 | -87.03608 | 984 ft | 146 kts | 302° |
| 2026-04-13 21:46 | 30.74050 | -87.04763 | 1082 ft | 155 kts | 255° |
| 2026-04-13 21:46 | 30.73433 | -87.05712 | 1086 ft | 154 kts | 202° |
| 2026-04-13 21:47 | 30.72403 | -87.05596 | 1102 ft | 159 kts | 148° |
| 2026-04-13 21:47 | 30.71513 | -87.04749 | 1029 ft | 171 kts | 143° |
| 2026-04-13 21:47 | 30.70636 | -87.03928 | 1090 ft | 149 kts | 145° |
| 2026-04-13 21:47 | 30.69908 | -87.03326 | 1046 ft | 117 kts | 147° |
| 2026-04-13 21:48 | 30.69318 | -87.02886 | 989 ft | 92 kts | 147° |
| 2026-04-13 21:48 | 30.69029 | -87.02233 | 944 ft | 106 kts | 87° |
| 2026-04-13 21:48 | 30.69518 | -87.01529 | 855 ft | 120 kts | 29° |
| 2026-04-13 21:48 | 30.70326 | -87.01177 | 644 ft | 122 kts | 20° |
| 2026-04-13 21:49 | 30.71158 | -87.01087 | 546 ft | 122 kts | 350° |
| 2026-04-13 21:49 | 30.71844 | -87.01542 | 273 ft | 115 kts | 310° |
| 2026-04-13 21:49 | 30.72396 | -87.02122 | 210 ft | 94 kts | 317° |
| 2026-04-13 21:49 | 30.72916 | -87.02816 | 479 ft | 143 kts | 308° |
| 2026-04-13 21:50 | 30.73656 | -87.03736 | 1114 ft | 157 kts | 298° |
| 2026-04-13 21:50 | 30.73676 | -87.04879 | 1062 ft | 145 kts | 231° |
| 2026-04-13 21:50 | 30.72816 | -87.05350 | 1047 ft | 142 kts | 176° |
| 2026-04-13 21:50 | 30.71913 | -87.04799 | 1005 ft | 151 kts | 143° |
| 2026-04-13 21:51 | 30.71085 | -87.03995 | 968 ft | 158 kts | 144° |
| 2026-04-13 21:51 | 30.70291 | -87.03218 | 1139 ft | 143 kts | 142° |
| 2026-04-13 21:51 | 30.69542 | -87.02457 | 1080 ft | 142 kts | 140° |
| 2026-04-13 21:51 | 30.68874 | -87.01693 | 1126 ft | 126 kts | 125° |
| 2026-04-13 21:52 | 30.68971 | -87.00695 | 958 ft | 136 kts | 55° |
| 2026-04-13 21:52 | 30.69823 | -87.00374 | 795 ft | 136 kts | 349° |
| 2026-04-13 21:52 | 30.70691 | -87.00671 | 667 ft | 128 kts | 341° |
| 2026-04-13 21:52 | 30.71435 | -87.01115 | 392 ft | 118 kts | 321° |
| 2026-04-13 21:53 | 30.72023 | -87.01696 | 233 ft | 100 kts | 323° |
| 2026-04-13 21:53 | 30.72510 | -87.02215 | 234 ft | 102 kts | 316° |
| 2026-04-13 21:53 | 30.73130 | -87.02849 | 660 ft | 131 kts | 316° |
| 2026-04-13 21:53 | 30.73557 | -87.03639 | 917 ft | 115 kts | 251° |
| 2026-04-13 21:54 | 30.72964 | -87.04399 | 891 ft | 155 kts | 219° |
| 2026-04-13 21:54 | 30.72058 | -87.05232 | 1048 ft | 173 kts | 214° |
| 2026-04-13 21:54 | 30.71071 | -87.06100 | 1161 ft | 180 kts | 213° |
| 2026-04-13 21:54 | 30.70057 | -87.06881 | 1284 ft | 176 kts | 194° |
| 2026-04-13 21:55 | 30.68896 | -87.06579 | 1115 ft | 180 kts | 142° |
| 2026-04-13 21:55 | 30.68341 | -87.05279 | 1020 ft | 186 kts | 102° |
| 2026-04-13 21:55 | 30.68688 | -87.03871 | 1151 ft | 188 kts | 54° |
| 2026-04-13 21:55 | 30.69689 | -87.02842 | 1003 ft | 194 kts | 44° |
| 2026-04-13 21:56 | 30.70721 | -87.01820 | 881 ft | 195 kts | 38° |
| 2026-04-13 21:56 | 30.71513 | -87.01045 | 949 ft | 173 kts | 42° |
| 2026-04-13 21:56 | 30.72362 | -87.00161 | 1127 ft | 138 kts | 46° |
| 2026-04-13 21:56 | 30.73044 | -86.99714 | 1027 ft | 104 kts | 347° |
| 2026-04-13 21:57 | 30.73492 | -87.00393 | 847 ft | 133 kts | 270° |
| 2026-04-13 21:57 | 30.73181 | -87.01244 | 572 ft | 112 kts | 230° |
| 2026-04-13 21:57 | 30.72648 | -87.01896 | 256 ft | 108 kts | 228° |
| 2026-04-13 21:57 | 30.72201 | -87.02458 | 205 ft | 76 kts | 227° |
| 2026-04-13 21:58 | 30.71887 | -87.02835 | 196 ft | 76 kts | 224° |